sensor_id;sensor_type;location;lat;lon;timestamp;P1;durP1;ratioP1;P2;durP2;ratioP2
26718;SDS011;14326;50.794;6.060;2024-02-21T00:01:51;30.42;;;9.90;;
26718;SDS011;14326;50.794;6.060;2024-02-21T00:04:17;32.15;;;10.00;;
26718;SDS011;14326;50.794;6.060;2024-02-21T00:06:44;40.72;;;10.05;;
26718;SDS011;14326;50.794;6.060;2024-02-21T00:09:11;32.03;;;10.35;;
26718;SDS011;14326;50.794;6.060;2024-02-21T00:11:37;32.08;;;10.00;;
26718;SDS011;14326;50.794;6.060;2024-02-21T00:14:05;32.47;;;10.32;;
26718;SDS011;14326;50.794;6.060;2024-02-21T00:16:32;29.92;;;10.05;;
26718;SDS011;14326;50.794;6.060;2024-02-21T00:18:59;31.90;;;9.98;;
26718;SDS011;14326;50.794;6.060;2024-02-21T00:21:25;30.95;;;10.50;;
26718;SDS011;14326;50.794;6.060;2024-02-21T00:23:52;31.42;;;9.63;;
26718;SDS011;14326;50.794;6.060;2024-02-21T00:26:18;33.00;;;9.75;;
26718;SDS011;14326;50.794;6.060;2024-02-21T00:28:45;29.23;;;9.77;;
26718;SDS011;14326;50.794;6.060;2024-02-21T00:31:13;35.65;;;10.85;;
26718;SDS011;14326;50.794;6.060;2024-02-21T00:33:39;35.63;;;9.77;;
26718;SDS011;14326;50.794;6.060;2024-02-21T00:36:06;28.88;;;10.73;;
26718;SDS011;14326;50.794;6.060;2024-02-21T00:38:33;31.67;;;10.18;;
26718;SDS011;14326;50.794;6.060;2024-02-21T00:40:59;31.27;;;10.07;;
26718;SDS011;14326;50.794;6.060;2024-02-21T00:43:26;36.67;;;10.63;;
26718;SDS011;14326;50.794;6.060;2024-02-21T00:45:53;31.30;;;9.70;;
26718;SDS011;14326;50.794;6.060;2024-02-21T00:48:20;32.22;;;10.02;;
26718;SDS011;14326;50.794;6.060;2024-02-21T00:50:47;34.75;;;10.27;;
26718;SDS011;14326;50.794;6.060;2024-02-21T00:53:14;31.98;;;10.57;;
26718;SDS011;14326;50.794;6.060;2024-02-21T00:55:41;30.02;;;10.25;;
26718;SDS011;14326;50.794;6.060;2024-02-21T00:58:08;31.73;;;10.52;;
26718;SDS011;14326;50.794;6.060;2024-02-21T01:00:35;26.75;;;10.10;;
26718;SDS011;14326;50.794;6.060;2024-02-21T01:03:02;34.85;;;11.23;;
26718;SDS011;14326;50.794;6.060;2024-02-21T01:05:30;26.75;;;9.57;;
26718;SDS011;14326;50.794;6.060;2024-02-21T01:07:57;34.10;;;9.27;;
26718;SDS011;14326;50.794;6.060;2024-02-21T01:10:23;31.95;;;11.13;;
26718;SDS011;14326;50.794;6.060;2024-02-21T01:12:50;32.60;;;10.27;;
26718;SDS011;14326;50.794;6.060;2024-02-21T01:15:16;34.22;;;9.90;;
26718;SDS011;14326;50.794;6.060;2024-02-21T01:17:43;31.05;;;9.20;;
26718;SDS011;14326;50.794;6.060;2024-02-21T01:20:10;36.78;;;9.73;;
26718;SDS011;14326;50.794;6.060;2024-02-21T01:22:38;29.65;;;9.77;;
26718;SDS011;14326;50.794;6.060;2024-02-21T01:25:05;32.83;;;9.73;;
26718;SDS011;14326;50.794;6.060;2024-02-21T01:27:33;31.00;;;10.10;;
26718;SDS011;14326;50.794;6.060;2024-02-21T01:29:58;34.45;;;9.52;;
26718;SDS011;14326;50.794;6.060;2024-02-21T01:32:25;34.05;;;10.88;;
26718;SDS011;14326;50.794;6.060;2024-02-21T01:34:52;34.08;;;9.82;;
26718;SDS011;14326;50.794;6.060;2024-02-21T01:37:18;32.58;;;9.93;;
26718;SDS011;14326;50.794;6.060;2024-02-21T01:39:46;29.58;;;9.60;;
26718;SDS011;14326;50.794;6.060;2024-02-21T01:42:14;31.40;;;9.40;;
26718;SDS011;14326;50.794;6.060;2024-02-21T01:44:41;31.58;;;9.30;;
26718;SDS011;14326;50.794;6.060;2024-02-21T01:47:07;34.30;;;9.73;;
26718;SDS011;14326;50.794;6.060;2024-02-21T01:49:34;32.58;;;9.98;;
26718;SDS011;14326;50.794;6.060;2024-02-21T01:52:01;27.38;;;8.88;;
26718;SDS011;14326;50.794;6.060;2024-02-21T01:54:29;30.88;;;9.45;;
26718;SDS011;14326;50.794;6.060;2024-02-21T01:56:58;28.08;;;9.35;;
26718;SDS011;14326;50.794;6.060;2024-02-21T01:59:25;35.42;;;9.55;;
26718;SDS011;14326;50.794;6.060;2024-02-21T02:01:51;31.63;;;9.40;;
26718;SDS011;14326;50.794;6.060;2024-02-21T02:04:19;34.22;;;9.10;;
26718;SDS011;14326;50.794;6.060;2024-02-21T02:06:46;31.38;;;9.75;;
26718;SDS011;14326;50.794;6.060;2024-02-21T02:09:13;27.58;;;9.95;;
26718;SDS011;14326;50.794;6.060;2024-02-21T02:11:40;30.27;;;8.88;;
26718;SDS011;14326;50.794;6.060;2024-02-21T02:14:08;26.75;;;8.93;;
26718;SDS011;14326;50.794;6.060;2024-02-21T02:16:34;26.73;;;8.30;;
26718;SDS011;14326;50.794;6.060;2024-02-21T02:19:01;29.85;;;9.27;;
26718;SDS011;14326;50.794;6.060;2024-02-21T02:21:29;28.83;;;9.25;;
26718;SDS011;14326;50.794;6.060;2024-02-21T02:26:56;24.73;;;8.57;;
26718;SDS011;14326;50.794;6.060;2024-02-21T02:29:23;36.80;;;9.35;;
26718;SDS011;14326;50.794;6.060;2024-02-21T02:31:49;28.00;;;9.40;;
26718;SDS011;14326;50.794;6.060;2024-02-21T02:34:16;24.17;;;8.77;;
26718;SDS011;14326;50.794;6.060;2024-02-21T02:36:42;31.20;;;9.05;;
26718;SDS011;14326;50.794;6.060;2024-02-21T02:39:09;22.38;;;9.07;;
26718;SDS011;14326;50.794;6.060;2024-02-21T02:41:36;28.40;;;8.85;;
26718;SDS011;14326;50.794;6.060;2024-02-21T02:44:04;33.83;;;9.32;;
26718;SDS011;14326;50.794;6.060;2024-02-21T02:46:30;27.33;;;9.38;;
26718;SDS011;14326;50.794;6.060;2024-02-21T02:48:57;30.17;;;9.35;;
26718;SDS011;14326;50.794;6.060;2024-02-21T02:51:24;28.02;;;9.57;;
26718;SDS011;14326;50.794;6.060;2024-02-21T02:53:50;28.67;;;8.63;;
26718;SDS011;14326;50.794;6.060;2024-02-21T02:56:17;32.65;;;10.02;;
26718;SDS011;14326;50.794;6.060;2024-02-21T02:58:43;25.35;;;8.85;;
26718;SDS011;14326;50.794;6.060;2024-02-21T03:01:11;29.58;;;9.13;;
26718;SDS011;14326;50.794;6.060;2024-02-21T03:03:38;27.75;;;8.52;;
26718;SDS011;14326;50.794;6.060;2024-02-21T03:06:05;30.63;;;8.77;;
26718;SDS011;14326;50.794;6.060;2024-02-21T03:08:32;33.65;;;10.05;;
26718;SDS011;14326;50.794;6.060;2024-02-21T03:10:59;32.10;;;9.30;;
26718;SDS011;14326;50.794;6.060;2024-02-21T03:13:25;32.63;;;9.10;;
26718;SDS011;14326;50.794;6.060;2024-02-21T03:15:52;25.52;;;8.63;;
26718;SDS011;14326;50.794;6.060;2024-02-21T03:18:20;33.47;;;9.00;;
26718;SDS011;14326;50.794;6.060;2024-02-21T03:20:47;26.50;;;8.35;;
26718;SDS011;14326;50.794;6.060;2024-02-21T03:23:13;24.75;;;8.35;;
26718;SDS011;14326;50.794;6.060;2024-02-21T03:25:40;29.05;;;8.43;;
26718;SDS011;14326;50.794;6.060;2024-02-21T03:28:07;25.10;;;8.57;;
26718;SDS011;14326;50.794;6.060;2024-02-21T03:30:33;27.80;;;8.68;;
26718;SDS011;14326;50.794;6.060;2024-02-21T03:33:00;26.80;;;9.10;;
26718;SDS011;14326;50.794;6.060;2024-02-21T03:35:28;22.15;;;8.13;;
26718;SDS011;14326;50.794;6.060;2024-02-21T03:37:55;25.92;;;9.02;;
26718;SDS011;14326;50.794;6.060;2024-02-21T03:40:21;31.42;;;8.63;;
26718;SDS011;14326;50.794;6.060;2024-02-21T03:42:48;26.92;;;7.97;;
26718;SDS011;14326;50.794;6.060;2024-02-21T03:45:15;31.95;;;8.68;;
26718;SDS011;14326;50.794;6.060;2024-02-21T03:47:41;24.02;;;8.32;;
26718;SDS011;14326;50.794;6.060;2024-02-21T03:50:08;22.83;;;7.78;;
26718;SDS011;14326;50.794;6.060;2024-02-21T03:52:36;28.90;;;8.32;;
26718;SDS011;14326;50.794;6.060;2024-02-21T03:55:03;30.05;;;8.88;;
26718;SDS011;14326;50.794;6.060;2024-02-21T03:57:30;26.05;;;8.10;;
26718;SDS011;14326;50.794;6.060;2024-02-21T03:59:56;21.33;;;7.35;;
26718;SDS011;14326;50.794;6.060;2024-02-21T04:02:23;25.77;;;7.68;;
26718;SDS011;14326;50.794;6.060;2024-02-21T04:04:50;23.65;;;7.28;;
26718;SDS011;14326;50.794;6.060;2024-02-21T04:07:16;28.27;;;8.30;;
26718;SDS011;14326;50.794;6.060;2024-02-21T04:09:44;32.42;;;8.10;;
26718;SDS011;14326;50.794;6.060;2024-02-21T04:12:11;24.75;;;8.02;;
26718;SDS011;14326;50.794;6.060;2024-02-21T04:14:37;30.90;;;7.95;;
26718;SDS011;14326;50.794;6.060;2024-02-21T04:17:04;25.20;;;7.30;;
26718;SDS011;14326;50.794;6.060;2024-02-21T04:19:30;23.73;;;6.97;;
26718;SDS011;14326;50.794;6.060;2024-02-21T04:21:58;25.80;;;7.53;;
26718;SDS011;14326;50.794;6.060;2024-02-21T04:24:25;26.67;;;7.53;;
26718;SDS011;14326;50.794;6.060;2024-02-21T04:26:53;26.33;;;8.45;;
26718;SDS011;14326;50.794;6.060;2024-02-21T04:29:20;25.35;;;7.07;;
26718;SDS011;14326;50.794;6.060;2024-02-21T04:31:46;30.67;;;7.55;;
26718;SDS011;14326;50.794;6.060;2024-02-21T04:34:13;25.92;;;7.20;;
26718;SDS011;14326;50.794;6.060;2024-02-21T04:36:39;26.13;;;6.82;;
26718;SDS011;14326;50.794;6.060;2024-02-21T04:39:06;27.15;;;7.78;;
26718;SDS011;14326;50.794;6.060;2024-02-21T04:41:33;22.27;;;7.15;;
26718;SDS011;14326;50.794;6.060;2024-02-21T04:44:01;22.73;;;6.80;;
26718;SDS011;14326;50.794;6.060;2024-02-21T04:46:28;27.08;;;7.60;;
26718;SDS011;14326;50.794;6.060;2024-02-21T04:48:55;26.45;;;7.07;;
26718;SDS011;14326;50.794;6.060;2024-02-21T04:51:22;26.30;;;8.48;;
26718;SDS011;14326;50.794;6.060;2024-02-21T04:53:48;25.52;;;7.97;;
26718;SDS011;14326;50.794;6.060;2024-02-21T04:56:15;25.50;;;7.45;;
26718;SDS011;14326;50.794;6.060;2024-02-21T04:58:42;29.88;;;7.88;;
26718;SDS011;14326;50.794;6.060;2024-02-21T05:01:10;27.02;;;7.20;;
26718;SDS011;14326;50.794;6.060;2024-02-21T05:03:36;22.73;;;6.85;;
26718;SDS011;14326;50.794;6.060;2024-02-21T05:06:04;25.02;;;6.57;;
26718;SDS011;14326;50.794;6.060;2024-02-21T05:08:31;25.50;;;7.68;;
26718;SDS011;14326;50.794;6.060;2024-02-21T05:10:58;27.10;;;7.35;;
26718;SDS011;14326;50.794;6.060;2024-02-21T05:13:24;25.25;;;7.18;;
26718;SDS011;14326;50.794;6.060;2024-02-21T05:15:51;28.77;;;7.65;;
26718;SDS011;14326;50.794;6.060;2024-02-21T05:18:19;22.27;;;7.45;;
26718;SDS011;14326;50.794;6.060;2024-02-21T05:20:45;25.88;;;7.25;;
26718;SDS011;14326;50.794;6.060;2024-02-21T05:23:12;26.95;;;7.55;;
26718;SDS011;14326;50.794;6.060;2024-02-21T05:25:39;21.67;;;7.55;;
26718;SDS011;14326;50.794;6.060;2024-02-21T05:28:05;23.52;;;7.25;;
26718;SDS011;14326;50.794;6.060;2024-02-21T05:30:32;27.02;;;8.15;;
26718;SDS011;14326;50.794;6.060;2024-02-21T05:32:58;30.35;;;7.93;;
26718;SDS011;14326;50.794;6.060;2024-02-21T05:35:27;23.63;;;6.82;;
26718;SDS011;14326;50.794;6.060;2024-02-21T05:37:54;21.80;;;5.47;;
26718;SDS011;14326;50.794;6.060;2024-02-21T05:40:21;28.55;;;7.10;;
26718;SDS011;14326;50.794;6.060;2024-02-21T05:42:48;22.67;;;6.32;;
26718;SDS011;14326;50.794;6.060;2024-02-21T05:45:16;23.83;;;7.82;;
26718;SDS011;14326;50.794;6.060;2024-02-21T05:47:42;24.58;;;6.78;;
26718;SDS011;14326;50.794;6.060;2024-02-21T05:50:10;23.67;;;6.80;;
26718;SDS011;14326;50.794;6.060;2024-02-21T05:52:38;34.42;;;7.95;;
26718;SDS011;14326;50.794;6.060;2024-02-21T05:55:06;29.42;;;7.80;;
26718;SDS011;14326;50.794;6.060;2024-02-21T05:57:33;27.35;;;7.97;;
26718;SDS011;14326;50.794;6.060;2024-02-21T06:00:02;26.52;;;7.18;;
26718;SDS011;14326;50.794;6.060;2024-02-21T06:02:30;24.92;;;6.78;;
26718;SDS011;14326;50.794;6.060;2024-02-21T06:04:56;26.42;;;7.25;;
26718;SDS011;14326;50.794;6.060;2024-02-21T06:07:23;23.58;;;7.10;;
26718;SDS011;14326;50.794;6.060;2024-02-21T06:09:51;24.20;;;6.47;;
26718;SDS011;14326;50.794;6.060;2024-02-21T06:12:18;26.65;;;7.30;;
26718;SDS011;14326;50.794;6.060;2024-02-21T06:14:44;27.10;;;6.68;;
26718;SDS011;14326;50.794;6.060;2024-02-21T06:17:11;26.83;;;7.30;;
26718;SDS011;14326;50.794;6.060;2024-02-21T06:19:39;25.73;;;6.55;;
26718;SDS011;14326;50.794;6.060;2024-02-21T06:22:06;24.58;;;6.60;;
26718;SDS011;14326;50.794;6.060;2024-02-21T06:24:33;26.50;;;6.75;;
26718;SDS011;14326;50.794;6.060;2024-02-21T06:27:00;26.77;;;7.40;;
26718;SDS011;14326;50.794;6.060;2024-02-21T06:29:26;24.30;;;7.50;;
26718;SDS011;14326;50.794;6.060;2024-02-21T06:31:53;27.40;;;7.00;;
26718;SDS011;14326;50.794;6.060;2024-02-21T06:34:19;30.38;;;6.85;;
26718;SDS011;14326;50.794;6.060;2024-02-21T06:36:46;23.95;;;6.90;;
26718;SDS011;14326;50.794;6.060;2024-02-21T06:39:13;27.98;;;6.88;;
26718;SDS011;14326;50.794;6.060;2024-02-21T06:41:39;25.48;;;6.15;;
26718;SDS011;14326;50.794;6.060;2024-02-21T06:44:07;26.10;;;6.82;;
26718;SDS011;14326;50.794;6.060;2024-02-21T06:46:34;26.38;;;6.55;;
26718;SDS011;14326;50.794;6.060;2024-02-21T06:49:01;22.65;;;6.45;;
26718;SDS011;14326;50.794;6.060;2024-02-21T06:51:28;26.20;;;6.53;;
26718;SDS011;14326;50.794;6.060;2024-02-21T06:53:55;25.27;;;6.50;;
26718;SDS011;14326;50.794;6.060;2024-02-21T06:56:23;23.90;;;6.45;;
26718;SDS011;14326;50.794;6.060;2024-02-21T06:58:53;21.80;;;7.13;;
26718;SDS011;14326;50.794;6.060;2024-02-21T07:01:21;22.15;;;5.95;;
26718;SDS011;14326;50.794;6.060;2024-02-21T07:03:48;21.77;;;6.20;;
26718;SDS011;14326;50.794;6.060;2024-02-21T07:06:14;23.45;;;6.43;;
26718;SDS011;14326;50.794;6.060;2024-02-21T07:08:41;21.23;;;6.22;;
26718;SDS011;14326;50.794;6.060;2024-02-21T07:11:08;21.88;;;6.45;;
26718;SDS011;14326;50.794;6.060;2024-02-21T07:13:34;22.67;;;5.75;;
26718;SDS011;14326;50.794;6.060;2024-02-21T07:16:01;23.38;;;6.43;;
26718;SDS011;14326;50.794;6.060;2024-02-21T07:18:29;20.45;;;6.50;;
26718;SDS011;14326;50.794;6.060;2024-02-21T07:20:55;26.20;;;6.13;;
26718;SDS011;14326;50.794;6.060;2024-02-21T07:23:22;24.73;;;5.88;;
26718;SDS011;14326;50.794;6.060;2024-02-21T07:25:48;21.05;;;6.15;;
26718;SDS011;14326;50.794;6.060;2024-02-21T07:28:15;22.75;;;6.13;;
26718;SDS011;14326;50.794;6.060;2024-02-21T07:30:42;20.30;;;5.55;;
26718;SDS011;14326;50.794;6.060;2024-02-21T07:33:08;22.20;;;5.75;;
26718;SDS011;14326;50.794;6.060;2024-02-21T07:35:36;19.05;;;5.70;;
26718;SDS011;14326;50.794;6.060;2024-02-21T07:40:55;19.42;;;6.20;;
26718;SDS011;14326;50.794;6.060;2024-02-21T07:43:21;22.90;;;6.07;;
26718;SDS011;14326;50.794;6.060;2024-02-21T07:45:48;23.33;;;6.25;;
26718;SDS011;14326;50.794;6.060;2024-02-21T07:48:14;23.38;;;5.72;;
26718;SDS011;14326;50.794;6.060;2024-02-21T07:50:42;19.60;;;5.78;;
26718;SDS011;14326;50.794;6.060;2024-02-21T07:53:08;23.33;;;5.55;;
26718;SDS011;14326;50.794;6.060;2024-02-21T07:55:35;18.42;;;5.53;;
26718;SDS011;14326;50.794;6.060;2024-02-21T07:58:03;18.77;;;6.07;;
26718;SDS011;14326;50.794;6.060;2024-02-21T08:00:29;22.98;;;5.78;;
26718;SDS011;14326;50.794;6.060;2024-02-21T08:02:56;26.95;;;6.45;;
26718;SDS011;14326;50.794;6.060;2024-02-21T08:05:23;20.10;;;4.53;;
26718;SDS011;14326;50.794;6.060;2024-02-21T08:07:49;18.77;;;4.85;;
26718;SDS011;14326;50.794;6.060;2024-02-21T08:10:16;16.23;;;5.22;;
26718;SDS011;14326;50.794;6.060;2024-02-21T08:12:43;19.55;;;4.63;;
26718;SDS011;14326;50.794;6.060;2024-02-21T08:15:11;20.25;;;4.68;;
26718;SDS011;14326;50.794;6.060;2024-02-21T08:17:37;19.65;;;5.07;;
26718;SDS011;14326;50.794;6.060;2024-02-21T08:20:04;16.75;;;4.32;;
26718;SDS011;14326;50.794;6.060;2024-02-21T08:22:31;14.60;;;4.10;;
26718;SDS011;14326;50.794;6.060;2024-02-21T08:24:58;23.50;;;6.68;;
26718;SDS011;14326;50.794;6.060;2024-02-21T08:27:24;18.33;;;4.30;;
26718;SDS011;14326;50.794;6.060;2024-02-21T08:29:51;18.15;;;4.68;;
26718;SDS011;14326;50.794;6.060;2024-02-21T08:32:19;20.55;;;4.47;;
26718;SDS011;14326;50.794;6.060;2024-02-21T08:34:46;15.52;;;4.80;;
26718;SDS011;14326;50.794;6.060;2024-02-21T08:37:12;18.30;;;4.30;;
26718;SDS011;14326;50.794;6.060;2024-02-21T08:39:39;17.15;;;5.32;;
26718;SDS011;14326;50.794;6.060;2024-02-21T08:42:05;19.73;;;4.93;;
26718;SDS011;14326;50.794;6.060;2024-02-21T08:44:32;18.20;;;4.82;;
26718;SDS011;14326;50.794;6.060;2024-02-21T08:46:59;20.38;;;4.38;;
26718;SDS011;14326;50.794;6.060;2024-02-21T08:49:30;17.97;;;4.20;;
26718;SDS011;14326;50.794;6.060;2024-02-21T08:51:58;16.52;;;4.45;;
26718;SDS011;14326;50.794;6.060;2024-02-21T08:54:25;19.70;;;4.30;;
26718;SDS011;14326;50.794;6.060;2024-02-21T08:56:51;18.75;;;4.18;;
26718;SDS011;14326;50.794;6.060;2024-02-21T08:59:18;16.20;;;4.10;;
26718;SDS011;14326;50.794;6.060;2024-02-21T09:01:45;17.83;;;4.97;;
26718;SDS011;14326;50.794;6.060;2024-02-21T09:04:12;22.52;;;4.18;;
26718;SDS011;14326;50.794;6.060;2024-02-21T09:06:40;20.60;;;4.70;;
26718;SDS011;14326;50.794;6.060;2024-02-21T09:09:07;16.58;;;4.65;;
26718;SDS011;14326;50.794;6.060;2024-02-21T09:11:34;16.27;;;4.15;;
26718;SDS011;14326;50.794;6.060;2024-02-21T09:14:01;18.90;;;4.40;;
26718;SDS011;14326;50.794;6.060;2024-02-21T09:16:29;18.17;;;4.07;;
26718;SDS011;14326;50.794;6.060;2024-02-21T09:18:56;20.25;;;4.50;;
26718;SDS011;14326;50.794;6.060;2024-02-21T09:21:23;15.10;;;4.40;;
26718;SDS011;14326;50.794;6.060;2024-02-21T09:23:51;17.25;;;4.03;;
26718;SDS011;14326;50.794;6.060;2024-02-21T09:26:18;17.85;;;4.35;;
26718;SDS011;14326;50.794;6.060;2024-02-21T09:28:44;12.77;;;3.90;;
26718;SDS011;14326;50.794;6.060;2024-02-21T09:31:11;19.92;;;4.53;;
26718;SDS011;14326;50.794;6.060;2024-02-21T09:33:38;18.20;;;4.65;;
26718;SDS011;14326;50.794;6.060;2024-02-21T09:36:05;13.88;;;4.10;;
26718;SDS011;14326;50.794;6.060;2024-02-21T09:38:32;21.55;;;4.20;;
26718;SDS011;14326;50.794;6.060;2024-02-21T09:41:03;18.88;;;3.80;;
26718;SDS011;14326;50.794;6.060;2024-02-21T09:43:44;17.63;;;4.07;;
26718;SDS011;14326;50.794;6.060;2024-02-21T09:46:13;14.88;;;4.03;;
26718;SDS011;14326;50.794;6.060;2024-02-21T09:48:47;14.52;;;4.07;;
26718;SDS011;14326;50.794;6.060;2024-02-21T09:51:24;17.10;;;4.10;;
26718;SDS011;14326;50.794;6.060;2024-02-21T09:53:54;22.08;;;4.40;;
26718;SDS011;14326;50.794;6.060;2024-02-21T09:56:25;14.43;;;3.70;;
26718;SDS011;14326;50.794;6.060;2024-02-21T09:58:51;17.60;;;3.90;;
26718;SDS011;14326;50.794;6.060;2024-02-21T10:01:18;14.15;;;3.92;;
26718;SDS011;14326;50.794;6.060;2024-02-21T10:03:44;17.15;;;4.28;;
26718;SDS011;14326;50.794;6.060;2024-02-21T10:06:11;16.75;;;3.78;;
26718;SDS011;14326;50.794;6.060;2024-02-21T10:08:38;17.23;;;4.03;;
26718;SDS011;14326;50.794;6.060;2024-02-21T10:11:04;22.00;;;4.38;;
26718;SDS011;14326;50.794;6.060;2024-02-21T10:13:35;13.57;;;3.17;;
26718;SDS011;14326;50.794;6.060;2024-02-21T10:16:03;20.17;;;3.30;;
26718;SDS011;14326;50.794;6.060;2024-02-21T10:18:31;13.00;;;3.85;;
26718;SDS011;14326;50.794;6.060;2024-02-21T10:21:01;17.17;;;4.30;;
26718;SDS011;14326;50.794;6.060;2024-02-21T10:23:28;14.00;;;3.70;;
26718;SDS011;14326;50.794;6.060;2024-02-21T10:26:04;13.93;;;3.47;;
26718;SDS011;14326;50.794;6.060;2024-02-21T10:28:31;18.75;;;4.75;;
26718;SDS011;14326;50.794;6.060;2024-02-21T10:30:59;17.70;;;4.32;;
26718;SDS011;14326;50.794;6.060;2024-02-21T10:33:25;17.35;;;4.30;;
26718;SDS011;14326;50.794;6.060;2024-02-21T10:35:53;14.38;;;4.07;;
26718;SDS011;14326;50.794;6.060;2024-02-21T10:38:20;17.13;;;4.07;;
26718;SDS011;14326;50.794;6.060;2024-02-21T10:40:46;15.55;;;4.15;;
26718;SDS011;14326;50.794;6.060;2024-02-21T10:43:14;20.85;;;4.75;;
26718;SDS011;14326;50.794;6.060;2024-02-21T10:45:44;14.95;;;3.97;;
26718;SDS011;14326;50.794;6.060;2024-02-21T10:48:14;17.38;;;4.10;;
26718;SDS011;14326;50.794;6.060;2024-02-21T10:50:53;18.80;;;4.07;;
26718;SDS011;14326;50.794;6.060;2024-02-21T10:53:24;22.20;;;4.55;;
26718;SDS011;14326;50.794;6.060;2024-02-21T10:56:02;16.52;;;4.47;;
26718;SDS011;14326;50.794;6.060;2024-02-21T10:58:37;20.13;;;4.85;;
26718;SDS011;14326;50.794;6.060;2024-02-21T11:01:05;15.00;;;4.30;;
26718;SDS011;14326;50.794;6.060;2024-02-21T11:03:35;18.65;;;5.20;;
26718;SDS011;14326;50.794;6.060;2024-02-21T11:19:28;18.80;;;4.75;;
26718;SDS011;14326;50.794;6.060;2024-02-21T11:36:59;16.15;;;4.88;;
26718;SDS011;14326;50.794;6.060;2024-02-21T11:39:34;18.10;;;4.22;;
26718;SDS011;14326;50.794;6.060;2024-02-21T11:42:15;18.83;;;4.57;;
26718;SDS011;14326;50.794;6.060;2024-02-21T11:45:00;18.70;;;4.95;;
26718;SDS011;14326;50.794;6.060;2024-02-21T11:47:29;19.75;;;4.80;;
26718;SDS011;14326;50.794;6.060;2024-02-21T11:49:58;18.13;;;4.85;;
26718;SDS011;14326;50.794;6.060;2024-02-21T11:52:37;15.90;;;4.57;;
26718;SDS011;14326;50.794;6.060;2024-02-21T11:55:34;18.05;;;4.78;;
26718;SDS011;14326;50.794;6.060;2024-02-21T12:01:19;16.67;;;4.18;;
26718;SDS011;14326;50.794;6.060;2024-02-21T12:03:46;17.92;;;4.25;;
26718;SDS011;14326;50.794;6.060;2024-02-21T12:06:15;24.05;;;5.03;;
26718;SDS011;14326;50.794;6.060;2024-02-21T12:08:49;15.98;;;4.90;;
26718;SDS011;14326;50.794;6.060;2024-02-21T12:11:21;16.92;;;4.30;;
26718;SDS011;14326;50.794;6.060;2024-02-21T12:14:01;17.58;;;4.22;;
26718;SDS011;14326;50.794;6.060;2024-02-21T12:16:32;15.98;;;4.38;;
26718;SDS011;14326;50.794;6.060;2024-02-21T12:21:33;18.60;;;4.55;;
26718;SDS011;14326;50.794;6.060;2024-02-21T12:24:17;13.65;;;3.83;;
26718;SDS011;14326;50.794;6.060;2024-02-21T12:26:59;14.63;;;4.35;;
26718;SDS011;14326;50.794;6.060;2024-02-21T12:29:28;16.55;;;4.07;;
26718;SDS011;14326;50.794;6.060;2024-02-21T12:31:58;16.63;;;4.07;;
26718;SDS011;14326;50.794;6.060;2024-02-21T12:34:30;16.45;;;4.32;;
26718;SDS011;14326;50.794;6.060;2024-02-21T12:37:12;15.10;;;4.25;;
26718;SDS011;14326;50.794;6.060;2024-02-21T12:39:42;15.57;;;4.10;;
26718;SDS011;14326;50.794;6.060;2024-02-21T12:42:09;15.23;;;4.18;;
26718;SDS011;14326;50.794;6.060;2024-02-21T12:44:49;16.40;;;4.53;;
26718;SDS011;14326;50.794;6.060;2024-02-21T12:47:16;18.63;;;4.15;;
26718;SDS011;14326;50.794;6.060;2024-02-21T12:49:48;16.80;;;4.22;;
26718;SDS011;14326;50.794;6.060;2024-02-21T12:52:17;16.88;;;4.63;;
26718;SDS011;14326;50.794;6.060;2024-02-21T12:54:56;16.58;;;4.40;;
26718;SDS011;14326;50.794;6.060;2024-02-21T12:57:25;12.88;;;3.53;;
26718;SDS011;14326;50.794;6.060;2024-02-21T12:59:53;15.68;;;3.90;;
26718;SDS011;14326;50.794;6.060;2024-02-21T13:02:21;14.07;;;3.58;;
26718;SDS011;14326;50.794;6.060;2024-02-21T13:04:49;16.20;;;4.03;;
26718;SDS011;14326;50.794;6.060;2024-02-21T13:07:17;16.98;;;3.92;;
26718;SDS011;14326;50.794;6.060;2024-02-21T13:09:44;17.70;;;3.83;;
26718;SDS011;14326;50.794;6.060;2024-02-21T13:12:13;16.30;;;3.58;;
26718;SDS011;14326;50.794;6.060;2024-02-21T13:14:41;16.75;;;3.95;;
26718;SDS011;14326;50.794;6.060;2024-02-21T13:17:10;14.13;;;3.60;;
26718;SDS011;14326;50.794;6.060;2024-02-21T13:19:55;16.77;;;3.90;;
26718;SDS011;14326;50.794;6.060;2024-02-21T13:22:56;11.63;;;3.38;;
26718;SDS011;14326;50.794;6.060;2024-02-21T13:25:23;15.60;;;4.00;;
26718;SDS011;14326;50.794;6.060;2024-02-21T13:27:51;12.63;;;3.35;;
26718;SDS011;14326;50.794;6.060;2024-02-21T13:30:17;16.60;;;4.32;;
26718;SDS011;14326;50.794;6.060;2024-02-21T13:32:44;12.50;;;3.50;;
26718;SDS011;14326;50.794;6.060;2024-02-21T13:35:12;12.82;;;3.30;;
26718;SDS011;14326;50.794;6.060;2024-02-21T13:37:39;13.15;;;3.47;;
26718;SDS011;14326;50.794;6.060;2024-02-21T13:40:07;13.68;;;3.60;;
26718;SDS011;14326;50.794;6.060;2024-02-21T13:42:35;15.07;;;3.10;;
26718;SDS011;14326;50.794;6.060;2024-02-21T13:45:03;14.70;;;3.55;;
26718;SDS011;14326;50.794;6.060;2024-02-21T13:47:31;15.27;;;3.20;;
26718;SDS011;14326;50.794;6.060;2024-02-21T13:49:58;14.32;;;3.20;;
26718;SDS011;14326;50.794;6.060;2024-02-21T13:52:25;18.40;;;3.78;;
26718;SDS011;14326;50.794;6.060;2024-02-21T13:54:52;19.85;;;3.03;;
26718;SDS011;14326;50.794;6.060;2024-02-21T13:57:19;16.83;;;3.25;;
26718;SDS011;14326;50.794;6.060;2024-02-21T13:59:45;13.50;;;3.22;;
26718;SDS011;14326;50.794;6.060;2024-02-21T14:02:13;12.73;;;2.92;;
26718;SDS011;14326;50.794;6.060;2024-02-21T14:04:40;11.77;;;3.05;;
26718;SDS011;14326;50.794;6.060;2024-02-21T14:07:07;13.80;;;3.35;;
26718;SDS011;14326;50.794;6.060;2024-02-21T14:09:34;14.48;;;3.20;;
26718;SDS011;14326;50.794;6.060;2024-02-21T14:12:01;13.70;;;3.00;;
26718;SDS011;14326;50.794;6.060;2024-02-21T14:14:28;16.90;;;3.35;;
26718;SDS011;14326;50.794;6.060;2024-02-21T14:16:54;13.07;;;3.13;;
26718;SDS011;14326;50.794;6.060;2024-02-21T14:19:22;13.75;;;2.92;;
26718;SDS011;14326;50.794;6.060;2024-02-21T14:21:49;15.10;;;3.15;;
26718;SDS011;14326;50.794;6.060;2024-02-21T14:24:16;18.35;;;3.33;;
26718;SDS011;14326;50.794;6.060;2024-02-21T14:26:42;11.68;;;2.72;;
26718;SDS011;14326;50.794;6.060;2024-02-21T14:29:09;14.02;;;2.90;;
26718;SDS011;14326;50.794;6.060;2024-02-21T14:31:36;11.50;;;2.80;;
26718;SDS011;14326;50.794;6.060;2024-02-21T14:34:03;12.27;;;2.90;;
26718;SDS011;14326;50.794;6.060;2024-02-21T14:36:31;13.40;;;2.60;;
26718;SDS011;14326;50.794;6.060;2024-02-21T14:38:58;13.13;;;2.60;;
26718;SDS011;14326;50.794;6.060;2024-02-21T14:41:25;10.38;;;2.58;;
26718;SDS011;14326;50.794;6.060;2024-02-21T14:43:52;14.73;;;3.33;;
26718;SDS011;14326;50.794;6.060;2024-02-21T14:46:21;12.65;;;2.95;;
26718;SDS011;14326;50.794;6.060;2024-02-21T14:48:47;12.93;;;2.65;;
26718;SDS011;14326;50.794;6.060;2024-02-21T14:51:14;10.85;;;2.80;;
26718;SDS011;14326;50.794;6.060;2024-02-21T14:53:42;11.98;;;2.83;;
26718;SDS011;14326;50.794;6.060;2024-02-21T14:56:12;13.50;;;2.58;;
26718;SDS011;14326;50.794;6.060;2024-02-21T14:58:40;12.48;;;2.90;;
26718;SDS011;14326;50.794;6.060;2024-02-21T15:01:06;13.60;;;2.63;;
26718;SDS011;14326;50.794;6.060;2024-02-21T15:03:33;9.45;;;2.22;;
26718;SDS011;14326;50.794;6.060;2024-02-21T15:06:01;8.73;;;2.42;;
26718;SDS011;14326;50.794;6.060;2024-02-21T15:08:28;11.80;;;2.28;;
26718;SDS011;14326;50.794;6.060;2024-02-21T15:10:55;9.30;;;2.40;;
26718;SDS011;14326;50.794;6.060;2024-02-21T15:13:23;9.30;;;2.35;;
26718;SDS011;14326;50.794;6.060;2024-02-21T15:15:49;14.70;;;2.90;;
26718;SDS011;14326;50.794;6.060;2024-02-21T15:18:16;10.73;;;2.47;;